Time;durP1;ratioP1;P1;durP2;ratioP2;P2;SDS_P1;SDS_P2;PMS_P1;PMS_P2;Temp;Humidity;BMP_temperature;BMP_pressure;BME280_temperature;BME280_humidity;BME280_pressure;Samples;Min_cycle;Max_cycle;Signal;HPM_P1;HPM_P2
2022/06/28 00:01:58;;;;;;;18.65;14.65;;;;;;;-148.88;100.00;75968.16;4977965;28;20093;-85
2022/06/28 00:04:23;;;;;;;19.45;13.98;;;;;;;-148.88;100.00;75976.28;4977694;28;20029;-85
2022/06/28 00:06:49;;;;;;;18.92;14.30;;;;;;;-148.88;100.00;75980.34;4992537;28;20027;-85
2022/06/28 00:09:15;;;;;;;26.63;15.65;;;;;;;-148.88;100.00;75986.44;4977751;28;20030;-85
2022/06/28 00:11:43;;;;;;;25.88;16.48;;;;;;;-148.88;100.00;75988.47;4992393;28;20477;-84
2022/06/28 00:16:55;;;;;;;26.90;17.67;;;;;;;-148.88;100.00;76000.66;4977783;28;20126;-83
2022/06/28 00:19:20;;;;;;;23.65;17.55;;;;;;;-148.88;100.00;76008.78;4992498;28;20051;-85
2022/06/28 00:21:47;;;;;;;24.70;18.67;;;;;;;-148.88;100.00;76000.66;4977514;28;20066;-85
2022/06/28 00:24:12;;;;;;;26.15;20.27;;;;;;;-148.88;100.00;76008.78;4977240;28;20019;-84
2022/06/28 00:26:37;;;;;;;25.00;19.10;;;;;;;-148.88;100.00;75998.63;4976218;28;20034;-84
2022/06/28 00:29:03;;;;;;;23.25;18.92;;;;;;;-148.88;100.00;76002.69;4992130;28;20114;-84
2022/06/28 00:31:28;;;;;;;24.55;19.60;;;;;;;-148.88;100.00;76008.78;4992822;28;20037;-85
2022/06/28 00:33:54;;;;;;;26.42;20.20;;;;;;;-148.88;100.00;76008.78;4977178;28;20101;-84
2022/06/28 00:36:19;;;;;;;26.42;20.73;;;;;;;-148.88;100.00;76008.78;4976559;28;20023;-86
2022/06/28 00:38:44;;;;;;;26.92;20.52;;;;;;;-148.88;100.00;76020.97;5048685;22;20157;-82
2022/06/28 00:41:09;;;;;;;22.15;18.85;;;;;;;-148.88;100.00;76023.00;5015827;28;20033;-82
2022/06/28 00:43:35;;;;;;;28.10;19.88;;;;;;;-148.88;100.00;76029.09;5015677;28;20025;-82
2022/06/28 00:46:02;;;;;;;26.75;19.80;;;;;;;-148.88;100.00;76037.22;5030800;28;20490;-83
2022/06/28 00:48:27;;;;;;;24.08;20.20;;;;;;;-148.88;100.00;76041.28;5015779;28;20022;-83
2022/06/28 00:50:53;;;;;;;25.13;21.40;;;;;;;-148.88;100.00;76045.34;5030861;28;20396;-83
2022/06/28 00:53:18;;;;;;;33.10;21.13;;;;;;;-148.88;100.00;76049.41;5014789;28;20488;-83
2022/06/28 00:55:44;;;;;;;29.00;19.73;;;;;;;-148.88;100.00;76055.50;5015214;28;20040;-83
2022/06/28 00:58:11;;;;;;;27.50;19.75;;;;;;;-148.88;100.00;76061.59;5015399;28;20018;-82
2022/06/28 01:00:40;;;;;;;27.77;19.13;;;;;;;-148.88;100.00;76065.66;5030340;28;20025;-83
2022/06/28 01:03:06;;;;;;;27.10;18.63;;;;;;;-148.88;100.00;76073.78;5015259;28;20054;-83
2022/06/28 01:05:31;;;;;;;26.60;18.17;;;;;;;-148.88;100.00;76090.03;5014861;28;20519;-82
2022/06/28 01:07:57;;;;;;;29.42;19.73;;;;;;;-148.88;100.00;76096.13;5013499;28;20435;-82
2022/06/28 01:10:25;;;;;;;28.92;20.35;;;;;;;-148.88;100.00;76098.16;5014512;28;20033;-83
2022/06/28 01:12:50;;;;;;;28.52;20.27;;;;;;;-148.88;100.00;76098.16;5013215;28;20029;-82
2022/06/28 01:15:15;;;;;;;25.65;21.02;;;;;;;-148.88;100.00;76102.22;5015134;28;20109;-82
2022/06/28 01:17:40;;;;;;;28.98;22.77;;;;;;;-148.88;100.00;76106.28;5030262;28;20026;-82
2022/06/28 01:20:06;;;;;;;31.75;22.30;;;;;;;-148.88;100.00;76108.31;5014574;28;20030;-82
2022/06/28 01:22:39;;;;;;;29.48;21.55;;;;;;;-148.88;100.00;76110.34;5013352;28;20045;-82
2022/06/28 01:25:05;;;;;;;28.08;22.40;;;;;;;-148.88;100.00;76110.34;5014650;28;20029;-82
2022/06/28 01:27:31;;;;;;;30.35;22.00;;;;;;;-148.88;100.00;76130.69;5014705;28;20421;-81
2022/06/28 01:29:56;;;;;;;32.38;23.75;;;;;;;-148.88;100.00;76126.59;5029860;28;20026;-82
2022/06/28 01:32:21;;;;;;;33.42;23.33;;;;;;;-148.88;100.00;76134.72;5014402;28;20029;-82
2022/06/28 01:34:47;;;;;;;31.33;24.15;;;;;;;-148.88;100.00;76134.72;5030583;28;20460;-83
2022/06/28 01:37:12;;;;;;;31.42;23.95;;;;;;;-148.88;100.00;76132.72;5014425;28;20456;-82
2022/06/28 01:39:38;;;;;;;33.78;25.00;;;;;;;-148.88;100.00;76134.72;5014666;28;20036;-81
2022/06/28 01:42:04;;;;;;;33.17;24.73;;;;;;;-148.88;100.00;76142.88;5030332;28;20033;-82
2022/06/28 01:44:30;;;;;;;31.20;23.77;;;;;;;-148.88;100.00;76159.13;5012983;28;20018;-82
2022/06/28 01:46:56;;;;;;;34.47;23.63;;;;;;;-148.88;100.00;76148.97;5012912;28;20053;-81
2022/06/28 01:49:21;;;;;;;33.97;25.92;;;;;;;-148.88;100.00;76151.00;5028887;28;20030;-82
2022/06/28 01:51:46;;;;;;;31.27;26.58;;;;;;;-148.88;100.00;76161.16;5028913;28;20033;-82
2022/06/28 01:54:12;;;;;;;36.67;26.40;;;;;;;-148.88;100.00;76163.19;5029126;28;20144;-82
2022/06/28 01:56:37;;;;;;;36.67;25.17;;;;;;;-148.88;100.00;76167.25;5029769;28;20037;-82
2022/06/28 01:59:03;;;;;;;34.20;25.52;;;;;;;-148.88;100.00;76171.31;5029231;28;20494;-82
2022/06/28 02:01:28;;;;;;;28.25;24.48;;;;;;;-148.88;100.00;76163.19;5012674;28;20037;-82
2022/06/28 02:03:54;;;;;;;34.90;24.33;;;;;;;-148.88;100.00;76171.31;5012766;28;20026;-82
2022/06/28 02:06:19;;;;;;;37.30;25.33;;;;;;;-148.88;100.00;76179.44;5029353;28;20029;-83
2022/06/28 02:08:44;;;;;;;40.13;26.73;;;;;;;-148.88;100.00;76183.50;5014000;28;20092;-82
2022/06/28 02:11:10;;;;;;;34.40;24.85;;;;;;;-148.88;100.00;76187.56;5013926;28;20032;-82
2022/06/28 02:13:35;;;;;;;30.50;24.80;;;;;;;-148.88;100.00;76189.59;5013899;28;20097;-82
2022/06/28 02:16:02;;;;;;;34.28;24.65;;;;;;;-148.88;100.00;76197.72;5012664;28;20026;-82
2022/06/28 02:18:30;;;;;;;38.75;26.00;;;;;;;-148.88;100.00;76191.63;5013837;28;20481;-83
2022/06/28 02:20:56;;;;;;;34.03;25.13;;;;;;;-148.88;100.00;76195.69;5029306;28;20412;-82
2022/06/28 02:23:21;;;;;;;31.25;24.83;;;;;;;-148.88;100.00;76203.81;5014173;28;20473;-82
2022/06/28 02:25:46;;;;;;;33.25;25.05;;;;;;;-148.88;100.00;76209.91;5012416;28;20167;-81
2022/06/28 02:28:11;;;;;;;28.67;23.90;;;;;;;-148.88;100.00;76216.00;5013246;28;20024;-82
2022/06/28 02:30:38;;;;;;;34.70;24.02;;;;;;;-148.88;100.00;76218.03;5013535;28;20393;-81
2022/06/28 02:33:03;;;;;;;28.83;22.77;;;;;;;-148.88;100.00;76228.19;5029513;28;20506;-82
2022/06/28 02:40:56;;;;;;;;;;;;;;;-148.88;100.00;76228.19;5014416;28;20091;-82
2022/06/28 02:43:21;;;;;;;30.73;25.80;;;;;;;-148.88;100.00;76232.25;5012951;28;19913;-82
2022/06/28 02:45:47;;;;;;;32.40;27.52;;;;;;;-148.88;100.00;76228.19;5014381;28;20262;-83
2022/06/28 02:48:12;;;;;;;36.70;27.67;;;;;;;-148.88;100.00;76222.09;5013612;28;20096;-84
2022/06/28 02:50:37;;;;;;;32.40;25.65;;;;;;;-148.88;100.00;76232.25;5013767;28;20108;-83
2022/06/28 02:53:03;;;;;;;33.45;24.55;;;;;;;-148.88;100.00;76232.25;5013786;28;20029;-83
2022/06/28 02:55:28;;;;;;;37.35;27.95;;;;;;;-148.88;100.00;76232.25;5013897;28;20084;-83
2022/06/28 03:01:15;;;;;;;32.83;25.42;;;;;;;-148.88;100.00;76236.31;5017237;28;20052;-83
2022/06/28 03:03:40;;;;;;;30.02;24.55;;;;;;;-148.88;100.00;76242.41;5018086;28;20337;-83
2022/06/28 03:06:06;;;;;;;33.03;26.50;;;;;;;-148.88;100.00;76244.44;5016827;28;20101;-82
2022/06/28 03:08:32;;;;;;;34.30;27.15;;;;;;;-148.88;100.00;76240.38;5016871;28;20543;-83
2022/06/28 03:10:58;;;;;;;34.40;26.77;;;;;;;-148.88;100.00;76248.50;5017504;28;20048;-83
2022/06/28 03:13:23;;;;;;;36.22;26.40;;;;;;;-148.88;100.00;76236.31;5017360;28;20392;-84
2022/06/28 03:15:49;;;;;;;32.88;27.58;;;;;;;-148.88;100.00;76236.31;5017656;28;20026;-82
2022/06/28 03:18:14;;;;;;;33.03;27.02;;;;;;;-148.88;100.00;76244.44;5015582;28;20085;-83
2022/06/28 03:20:40;;;;;;;36.03;28.15;;;;;;;-148.88;100.00;76244.44;5017390;28;20029;-81
2022/06/28 03:23:06;;;;;;;35.47;28.13;;;;;;;-148.88;100.00;76246.47;5017368;28;20048;-83
2022/06/28 03:25:31;;;;;;;36.17;27.77;;;;;;;-148.88;100.00;76256.63;5017400;28;20057;-83
2022/06/28 03:27:56;;;;;;;37.85;28.20;;;;;;;-148.88;100.00;76248.50;5018019;28;20019;-83
2022/06/28 03:30:22;;;;;;;38.63;27.75;;;;;;;-148.88;100.00;76248.50;5017433;28;20026;-82
2022/06/28 03:32:48;;;;;;;40.40;29.38;;;;;;;-148.88;100.00;76248.50;5017536;28;20029;-81
2022/06/28 03:35:13;;;;;;;40.88;29.38;;;;;;;-148.88;100.00;76248.50;5017017;28;20437;-81
2022/06/28 03:37:38;;;;;;;37.78;28.20;;;;;;;-148.88;100.00;76252.56;5017138;28;20084;-82
2022/06/28 03:40:05;;;;;;;37.67;27.42;;;;;;;-148.88;100.00;76260.69;5031871;28;20030;-81
2022/06/28 03:42:30;;;;;;;35.40;26.60;;;;;;;-148.88;100.00;76264.75;5016893;28;20033;-82
2022/06/28 03:44:55;;;;;;;35.60;27.33;;;;;;;-148.88;100.00;76268.81;5016223;28;20026;-81
2022/06/28 03:47:21;;;;;;;34.10;26.17;;;;;;;-148.88;100.00;76272.88;5016159;28;20014;-81
2022/06/28 03:49:49;;;;;;;32.15;26.10;;;;;;;-148.88;100.00;76285.06;5032445;28;20017;-81
2022/06/28 03:52:15;;;;;;;35.80;25.88;;;;;;;-148.88;100.00;76285.06;5016585;28;20033;-82
2022/06/28 03:54:40;;;;;;;34.05;25.13;;;;;;;-148.88;100.00;76278.97;5031832;28;20240;-81
2022/06/28 03:57:06;;;;;;;30.88;24.65;;;;;;;-148.88;100.00;76272.88;5032330;28;20109;-82
2022/06/28 03:59:32;;;;;;;37.53;26.73;;;;;;;-148.88;100.00;76285.06;5017274;28;20207;-83
2022/06/28 04:01:57;;;;;;;39.55;27.77;;;;;;;-148.88;100.00;76295.22;5017287;28;20033;-82
2022/06/28 04:04:22;;;;;;;34.53;26.52;;;;;;;-148.88;100.00;76291.16;5015579;28;20540;-83
2022/06/28 04:06:47;;;;;;;33.15;26.88;;;;;;;-148.88;100.00;76289.13;5031975;28;20022;-82
2022/06/28 04:09:13;;;;;;;38.28;27.20;;;;;;;-148.88;100.00;76287.09;5016259;28;20084;-82
2022/06/28 04:11:38;;;;;;;32.97;26.65;;;;;;;-148.88;100.00;76291.16;5015055;28;20042;-82
2022/06/28 04:14:03;;;;;;;33.08;26.58;;;;;;;-148.88;100.00;76287.09;5016244;28;20022;-82
2022/06/28 04:16:29;;;;;;;40.58;28.98;;;;;;;-148.88;100.00;76291.16;5016436;28;20409;-83
2022/06/28 04:18:54;;;;;;;45.28;32.00;;;;;;;-148.88;100.00;76285.06;5015507;28;20026;-83
2022/06/28 04:21:20;;;;;;;40.63;31.20;;;;;;;-148.88;100.00;76281.00;5014592;28;20025;-82
2022/06/28 04:23:46;;;;;;;45.90;32.92;;;;;;;-148.88;100.00;76268.81;5015765;28;20068;-83
2022/06/28 04:26:12;;;;;;;43.15;31.60;;;;;;;-148.88;100.00;76264.75;5015731;28;20065;-83
2022/06/28 04:28:38;;;;;;;45.70;32.92;;;;;;;-148.88;100.00;76266.78;5015749;28;20048;-81
2022/06/28 04:31:04;;;;;;;50.05;36.33;;;;;;;-148.88;100.00;76260.69;5014842;28;20117;-80
2022/06/28 04:33:29;;;;;;;55.38;37.35;;;;;;;-148.88;100.00;76254.59;5031926;28;20083;-82
2022/06/28 04:35:55;;;;;;;56.80;37.63;;;;;;;-148.88;100.00;76252.56;5015915;28;20022;-82
2022/06/28 04:38:21;;;;;;;57.78;39.58;;;;;;;-148.88;100.00;76248.50;5016074;28;20030;-82
2022/06/28 04:40:46;;;;;;;59.30;40.80;;;;;;;-148.88;100.00;76246.47;5016042;28;20025;-82
2022/06/28 04:43:11;;;;;;;62.10;40.45;;;;;;;-148.88;100.00;76242.41;5015287;28;20025;-83
2022/06/28 04:45:37;;;;;;;65.38;41.95;;;;;;;-148.88;100.00;76246.47;5015982;28;20131;-83
2022/06/28 04:48:03;;;;;;;61.95;42.05;;;;;;;-148.88;100.00;76250.53;5014761;28;20034;-84
2022/06/28 04:50:28;;;;;;;64.20;41.72;;;;;;;-148.88;100.00;76240.38;5031120;28;20025;-83
2022/06/28 04:52:53;;;;;;;68.80;42.05;;;;;;;-148.88;100.00;76240.38;5015179;28;20121;-82
2022/06/28 04:55:19;;;;;;;60.72;40.88;;;;;;;-148.88;100.00;76236.31;5016257;28;20101;-82
2022/06/28 04:57:45;;;;;;;64.50;41.17;;;;;;;-148.88;100.00;76232.25;5015423;28;20021;-83
2022/06/28 05:00:11;;;;;;;66.85;42.17;;;;;;;-148.88;100.00;76228.19;5015593;28;20026;-82
2022/06/28 05:02:37;;;;;;;68.78;41.33;;;;;;;-148.88;100.00;76224.13;5030046;28;20060;-82
2022/06/28 05:05:07;;;;;;;72.63;42.42;;;;;;;-148.88;100.00;76224.13;5014846;28;20503;-82
2022/06/28 05:07:33;;;;;;;78.15;43.55;;;;;;;-148.88;100.00;76211.94;5014921;28;20081;-82
2022/06/28 05:09:59;;;;;;;65.88;41.17;;;;;;;-148.88;100.00;76218.03;5014778;28;20026;-82
2022/06/28 05:12:24;;;;;;;74.47;43.90;;;;;;;-148.88;100.00;76207.88;5015160;28;20034;-82
2022/06/28 05:14:50;;;;;;;72.57;43.42;;;;;;;-148.88;100.00;76195.69;5030386;28;20538;-82
2022/06/28 05:17:15;;;;;;;70.47;40.42;;;;;;;-148.88;100.00;76191.63;5014459;28;20065;-83
2022/06/28 05:19:41;;;;;;;72.28;41.35;;;;;;;-148.88;100.00;76177.41;5014729;28;20422;-82
2022/06/28 05:22:08;;;;;;;69.03;41.15;;;;;;;-148.88;100.00;76175.38;5014836;28;20064;-83
2022/06/28 05:24:33;;;;;;;76.45;43.83;;;;;;;-148.88;100.00;76167.25;5014600;28;20105;-82
2022/06/28 05:26:59;;;;;;;73.00;44.38;;;;;;;-148.88;100.00;76155.06;5014894;28;20092;-82
2022/06/28 05:29:24;;;;;;;76.30;44.72;;;;;;;-148.88;100.00;76155.06;5014894;28;20041;-82
2022/06/28 05:31:49;;;;;;;78.57;46.47;;;;;;;-148.88;100.00;76142.88;5014471;28;20061;-82
2022/06/28 05:34:15;;;;;;;82.10;47.20;;;;;;;-148.88;100.00;76142.88;5014852;28;20021;-82
2022/06/28 05:36:41;;;;;;;79.13;45.40;;;;;;;-148.88;100.00;76130.69;5012962;28;20036;-83
2022/06/28 05:39:07;;;;;;;79.60;46.20;;;;;;;-148.88;100.00;76124.56;5014007;28;20100;-82
2022/06/28 05:41:32;;;;;;;77.07;46.22;;;;;;;-148.88;100.00;76116.44;5014304;28;20477;-82
2022/06/28 05:43:58;;;;;;;80.85;45.75;;;;;;;-148.88;100.00;76108.31;5014244;28;20112;-82
2022/06/28 05:46:25;;;;;;;65.72;42.17;;;;;;;-148.88;100.00;76112.41;5014172;28;20109;-82
2022/06/28 05:48:50;;;;;;;67.07;42.75;;;;;;;-148.88;100.00;76098.16;5029869;28;20021;-82
2022/06/28 05:51:15;;;;;;;76.22;45.10;;;;;;;-148.88;100.00;76083.94;5012954;28;20076;-83
2022/06/28 05:53:41;;;;;;;67.70;42.85;;;;;;;-148.88;100.00;76081.91;5014160;28;20049;-83
2022/06/28 05:56:06;;;;;;;62.97;38.90;;;;;;;-148.88;100.00;76083.94;5013912;28;20539;-83
2022/06/28 05:58:31;;;;;;;67.68;40.58;;;;;;;-148.88;100.00;76069.72;5013950;28;20029;-82
2022/06/28 06:00:57;;;;;;;64.65;38.75;;;;;;;-148.88;100.00;76063.63;5029114;28;20037;-82
2022/06/28 06:03:22;;;;;;;55.47;36.42;;;;;;;-148.88;100.00;76053.47;5013644;28;20108;-83
2022/06/28 06:05:48;;;;;;;53.70;35.35;;;;;;;-148.88;100.00;76045.34;5013784;28;20029;-82
2022/06/28 06:08:13;;;;;;;51.58;33.97;;;;;;;-148.88;100.00;76053.47;5013647;28;20026;-83
2022/06/28 06:10:38;;;;;;;47.45;31.05;;;;;;;-148.88;100.00;76033.16;5013134;28;20399;-83
2022/06/28 06:13:04;;;;;;;39.50;28.63;;;;;;;-148.88;100.00;76012.84;5013810;28;20113;-82
2022/06/28 06:15:29;;;;;;;42.13;27.52;;;;;;;-148.88;100.00;76008.78;5013837;28;20033;-83
2022/06/28 06:17:54;;;;;;;41.22;27.17;;;;;;;-148.88;100.00;76002.69;5013315;28;20099;-82
2022/06/28 06:20:20;;;;;;;38.45;25.85;;;;;;;-148.88;100.00;75988.47;5028426;28;20033;-82
2022/06/28 06:22:47;;;;;;;34.50;24.52;;;;;;;-148.88;100.00;75984.41;5013241;28;20026;-82
2022/06/28 06:25:13;;;;;;;30.55;24.83;;;;;;;-148.88;100.00;75968.16;5028511;28;20026;-82
2022/06/28 06:27:38;;;;;;;37.42;25.63;;;;;;;-148.88;100.00;75951.91;5013599;28;20032;-81
2022/06/28 06:30:06;;;;;;;29.52;21.65;;;;;;;-148.88;100.00;75951.91;5013912;28;20037;-82
2022/06/28 06:32:31;;;;;;;28.88;21.73;;;;;;;-148.88;100.00;75953.94;5012089;28;20030;-83
2022/06/28 06:34:56;;;;;;;23.35;18.98;;;;;;;-148.88;100.00;75931.59;5013040;28;20096;-82
2022/06/28 06:37:22;;;;;;;24.70;18.85;;;;;;;-148.88;100.00;75915.34;5025494;23;20038;-78
2022/06/28 06:39:47;;;;;;;23.27;18.85;;;;;;;-148.88;100.00;75911.28;4995982;28;20038;-78
2022/06/28 06:42:12;;;;;;;24.02;19.65;;;;;;;-148.88;100.00;75901.13;4994882;28;20026;-78
2022/06/28 06:44:37;;;;;;;24.50;18.42;;;;;;;-148.88;100.00;75878.78;4995620;28;20480;-78
2022/06/28 06:47:04;;;;;;;26.75;18.83;;;;;;;-148.88;100.00;75864.56;4995649;28;20038;-78
2022/06/28 06:49:29;;;;;;;25.27;18.25;;;;;;;-148.88;100.00;75854.41;4995578;28;20488;-78
2022/06/28 06:51:55;;;;;;;22.10;17.23;;;;;;;-148.88;100.00;75854.41;4996091;28;20037;-78
2022/06/28 06:54:20;;;;;;;22.17;16.73;;;;;;;-148.88;100.00;75842.22;4994499;28;20193;-77
2022/06/28 06:56:46;;;;;;;20.55;15.80;;;;;;;-148.88;100.00;75846.28;4994444;28;20033;-76
2022/06/28 06:59:13;;;;;;;21.15;16.02;;;;;;;-148.88;100.00;75842.22;4994845;28;20025;-76
2022/06/28 07:01:39;;;;;;;19.38;14.73;;;;;;;-148.88;100.00;75842.22;5009784;28;20091;-78
2022/06/28 07:04:04;;;;;;;18.60;14.98;;;;;;;-148.88;100.00;75840.19;4994669;28;20051;-77
2022/06/28 07:06:30;;;;;;;18.75;14.27;;;;;;;-148.88;100.00;75838.16;4994668;28;20026;-77
2022/06/28 07:08:55;;;;;;;18.23;13.57;;;;;;;-148.88;100.00;75821.91;4994932;28;20105;-76
2022/06/28 07:11:20;;;;;;;15.75;12.73;;;;;;;-148.88;96.76;75817.84;4994533;28;20073;-77
2022/06/28 07:13:45;;;;;;;17.52;11.35;;;;;;;-148.88;94.92;75817.84;5009726;28;20428;-76
2022/06/28 07:16:11;;;;;;;13.07;10.38;;;;;;;-148.88;90.69;75797.53;4994901;28;20026;-78
2022/06/28 07:18:36;;;;;;;14.15;10.07;;;;;;;-148.88;89.92;75785.34;4994343;28;20027;-76
2022/06/28 07:21:02;;;;;;;15.05;10.05;;;;;;;-148.88;91.10;75781.28;4993718;28;20034;-77
2022/06/28 07:23:27;;;;;;;14.30;10.10;;;;;;;-148.88;90.60;75787.38;4994489;28;20033;-77
2022/06/28 07:25:53;;;;;;;11.23;8.25;;;;;;;-148.88;86.69;75787.38;4994390;28;20406;-77
2022/06/28 07:28:18;;;;;;;15.02;9.23;;;;;;;-148.88;88.66;75783.31;4993663;28;20042;-77
2022/06/28 07:30:44;;;;;;;13.15;9.00;;;;;;;-148.88;88.05;75769.09;5008907;28;20018;-76
2022/06/28 07:33:10;;;;;;;12.55;9.25;;;;;;;-148.88;89.60;75763.00;4993674;28;20506;-76
2022/06/28 07:35:36;;;;;;;12.57;8.50;;;;;;;-148.88;90.95;75744.72;4993478;28;20034;-77
2022/06/28 07:38:01;;;;;;;8.27;6.68;;;;;;;-148.88;89.47;75748.78;5008454;28;20053;-77
2022/06/28 07:40:26;;;;;;;9.45;6.75;;;;;;;-148.88;88.55;75710.19;4993195;28;20027;-77
2022/06/28 07:42:52;;;;;;;10.05;7.18;;;;;;;-148.88;85.29;75702.06;4993311;28;20030;-76
2022/06/28 07:45:17;;;;;;;9.05;6.22;;;;;;;-148.88;83.50;75714.25;4993517;28;20027;-77
2022/06/28 07:47:47;;;;;;;9.20;6.43;;;;;;;-148.88;82.92;75716.28;4997010;28;20530;-77
2022/06/28 07:53:00;;;;;;;10.63;7.53;;;;;;;-148.88;84.12;75695.97;4996871;28;20045;-76
2022/06/28 07:55:25;;;;;;;13.68;9.20;;;;;;;-148.88;84.68;75681.75;4996730;28;20034;-77
2022/06/28 07:57:50;;;;;;;13.45;9.68;;;;;;;-148.88;81.70;75663.47;4995439;28;20022;-77
2022/06/28 08:00:19;;;;;;;11.93;9.68;;;;;;;-148.88;83.71;75657.38;4996737;28;20054;-77
2022/06/28 08:02:45;;;;;;;16.25;11.57;;;;;;;-148.88;85.04;75647.22;4996804;28;20053;-77
2022/06/28 08:05:11;;;;;;;15.05;9.93;;;;;;;-148.88;80.40;75649.25;4997247;28;20364;-77
2022/06/28 08:07:36;;;;;;;12.38;9.50;;;;;;;-148.88;81.16;75647.22;4997025;28;20027;-77
2022/06/28 08:10:02;;;;;;;13.82;8.73;;;;;;;-148.88;80.60;75618.78;4996814;28;20072;-76
2022/06/28 08:12:27;;;;;;;8.20;6.90;;;;;;;-148.88;78.81;75639.09;4995248;28;20041;-77
2022/06/28 08:14:52;;;;;;;10.07;6.32;;;;;;;-148.88;75.30;75630.97;4996822;28;20422;-77
2022/06/28 08:17:18;;;;;;;10.25;6.15;;;;;;;-148.88;77.73;75614.72;4996575;28;20027;-76
2022/06/28 08:19:43;;;;;;;8.85;5.43;;;;;;;-148.88;76.49;75610.66;4996316;28;20031;-77
2022/06/28 08:22:08;;;;;;;8.30;5.65;;;;;;;-148.88;77.37;75604.56;4995082;28;20117;-77
2022/06/28 08:24:33;;;;;;;10.20;6.20;;;;;;;-148.88;76.46;75602.53;4994988;28;20030;-77
2022/06/28 08:26:59;;;;;;;9.57;6.60;;;;;;;-148.88;76.96;75598.47;4996188;28;20022;-77
2022/06/28 08:29:24;;;;;;;10.05;7.20;;;;;;;-148.88;77.80;75557.88;4996106;28;20045;-77
2022/06/28 08:31:49;;;;;;;8.27;6.68;;;;;;;-148.88;77.09;75566.00;4996242;28;20504;-77
2022/06/28 08:34:15;;;;;;;12.55;7.05;;;;;;;-148.88;81.10;75559.91;4996019;28;20072;-77
2022/06/28 08:36:40;;;;;;;11.82;5.10;;;;;;;-148.88;76.82;75549.75;4996162;28;20029;-76
2022/06/28 08:39:06;;;;;;;7.05;3.83;;;;;;;-148.88;73.81;75537.56;4995848;28;20037;-77
2022/06/28 08:41:33;;;;;;;5.10;2.63;;;;;;;-148.88;68.76;75537.56;4994706;28;20097;-77
2022/06/28 08:43:59;;;;;;;6.95;2.80;;;;;;;-148.88;73.49;75523.34;4996029;28;20058;-77
2022/06/28 08:46:24;;;;;;;6.75;3.90;;;;;;;-148.88;71.57;75535.53;4994608;28;20049;-77
2022/06/28 08:49:04;;;;;;;7.22;3.60;;;;;;;-148.88;68.34;75513.19;4995676;28;20483;-77
2022/06/28 08:51:31;;;;;;;6.05;3.30;;;;;;;-148.88;71.35;75492.88;5010695;28;20045;-76
2022/06/28 08:54:02;;;;;;;8.05;3.67;;;;;;;-148.88;69.29;75476.63;4994241;28;20086;-77
2022/06/28 08:56:27;;;;;;;4.15;2.55;;;;;;;-148.88;70.86;75480.69;4995423;28;20026;-77
2022/06/28 08:58:55;;;;;;;8.90;2.40;;;;;;;-148.88;63.74;75456.31;4995088;28;20437;-77
2022/06/28 09:01:20;;;;;;;5.63;2.33;;;;;;;-148.88;66.96;75452.25;4996318;28;20109;-76
2022/06/28 09:03:50;;;;;;;7.00;2.88;;;;;;;-148.88;65.03;75454.28;4995905;28;20118;-76
2022/06/28 09:06:15;;;;;;;5.97;2.42;;;;;;;-148.88;66.10;75436.00;5010468;28;20117;-77
2022/06/28 09:08:41;;;;;;;8.40;2.83;;;;;;;-148.88;67.36;75415.69;4995038;28;20105;-77
2022/06/28 09:11:09;;;;;;;4.50;1.85;;;;;;;-148.88;67.20;75387.25;4995485;28;20026;-77
2022/06/28 09:13:35;;;;;;;6.80;2.30;;;;;;;-148.88;65.18;75391.31;5010425;28;20030;-77
2022/06/28 09:16:02;;;;;;;7.05;2.65;;;;;;;-148.88;64.56;75371.00;4991212;28;20396;-77
2022/06/28 09:18:44;;;;;;;6.63;2.42;;;;;;;-148.88;68.26;75326.31;4973599;28;20023;-76
2022/06/28 09:21:13;;;;;;;5.30;2.20;;;;;;;-148.88;63.62;75354.75;4984800;28;20038;-77
2022/06/28 09:23:41;;;;;;;5.65;2.08;;;;;;;-148.88;63.68;75306.00;4974507;28;20019;-77
2022/06/28 09:26:16;;;;;;;6.28;2.67;;;;;;;-148.88;61.06;75303.97;4973616;28;20038;-77
2022/06/28 09:28:45;;;;;;;6.13;2.10;;;;;;;-148.88;61.21;75285.69;4975248;28;20051;-77
2022/06/28 09:31:20;;;;;;;4.65;2.10;;;;;;;-148.88;61.11;75265.41;4990385;28;20085;-77
2022/06/28 09:34:02;;;;;;;4.22;2.13;;;;;;;-148.88;60.38;75267.44;4975353;28;20487;-77
2022/06/28 09:36:31;;;;;;;3.30;1.83;;;;;;;-148.88;59.66;75251.19;4974080;28;20057;-77
2022/06/28 09:38:57;;;;;;;4.95;1.60;;;;;;;-148.88;59.33;75220.72;4974937;28;20035;-76
2022/06/28 09:41:28;;;;;;;4.38;1.55;;;;;;;-148.88;56.57;75241.03;4975377;28;20023;-77
2022/06/28 09:43:58;;;;;;;5.30;1.73;;;;;;;-148.88;56.45;75224.78;4975210;28;20030;-77
2022/06/28 09:46:27;;;;;;;4.38;1.30;;;;;;;-148.88;55.64;75216.66;4975154;28;20082;-77
2022/06/28 09:48:56;;;;;;;2.90;1.50;;;;;;;-148.88;55.13;75216.66;4977265;28;20023;-77
2022/06/28 09:51:23;;;;;;;3.90;1.20;;;;;;;-148.88;55.38;75188.22;4975110;28;20114;-77
2022/06/28 09:53:58;;;;;;;4.70;1.35;;;;;;;-148.88;54.14;75176.03;4989920;28;20069;-77
2022/06/28 09:56:26;;;;;;;4.85;1.63;;;;;;;-148.88;53.83;75169.94;4974055;28;20110;-77
2022/06/28 09:58:51;;;;;;;2.25;1.00;;;;;;;-148.88;55.54;75119.16;4974076;28;20019;-77
2022/06/28 10:01:19;;;;;;;4.72;1.35;;;;;;;-148.88;51.98;75090.72;4979656;28;20494;-77
2022/06/28 10:03:44;;;;;;;3.55;1.50;;;;;;;-148.88;53.88;75090.72;4994969;28;20105;-77
2022/06/28 10:06:10;;;;;;;3.15;1.10;;;;;;;-148.88;52.14;75062.31;4994964;28;20060;-77
2022/06/28 10:08:37;;;;;;;2.97;1.27;;;;;;;-148.88;51.04;75064.34;4994319;28;20030;-76
2022/06/28 10:11:03;;;;;;;3.45;1.10;;;;;;;-148.88;51.68;75058.25;4993580;28;20026;-76
2022/06/28 10:16:30;;;;;;;4.35;1.33;;;;;;;-148.88;53.22;75078.56;4978840;28;20034;-76
2022/06/28 10:18:57;;;;;;;3.50;1.60;;;;;;;-148.88;52.29;75094.81;4994100;28;20073;-77
2022/06/28 10:21:41;;;;;;;2.40;1.20;;;;;;;-148.88;51.10;75042.00;5008979;28;20080;-76
2022/06/28 10:24:07;;;;;;;4.55;1.38;;;;;;;-148.88;49.39;75066.38;4993776;28;20022;-76
2022/06/28 10:26:32;;;;;;;5.00;1.38;;;;;;;-148.88;48.55;75068.41;5008928;28;20022;-76
2022/06/28 10:29:06;;;;;;;4.85;1.70;;;;;;;-148.88;50.03;75046.06;4993797;28;20398;-77
2022/06/28 10:31:34;;;;;;;3.97;1.65;;;;;;;-148.88;49.70;75044.03;4973883;28;20484;-76
2022/06/28 10:34:02;;;;;;;3.15;1.42;;;;;;;-148.88;50.53;75037.94;4974461;28;20102;-76
2022/06/28 10:36:33;;;;;;;2.38;1.40;;;;;;;-148.88;48.80;75017.63;4974599;28;20041;-77
2022/06/28 10:39:01;;;;;;;4.93;1.90;;;;;;;-148.88;47.23;75062.31;4974463;28;20396;-76
2022/06/28 10:41:40;;;;;;;4.05;1.30;;;;;;;-148.88;49.82;75017.63;4974513;28;20637;-76
2022/06/28 10:44:10;;;;;;;3.20;1.45;;;;;;;-148.88;47.87;75046.06;4974264;28;20038;-76
2022/06/28 10:46:36;;;;;;;3.55;1.27;;;;;;;-148.88;48.92;74997.31;4974283;28;20042;-76
2022/06/28 10:49:07;;;;;;;4.15;1.40;;;;;;;-148.88;48.77;74964.81;4988933;28;20062;-76
2022/06/28 10:51:33;;;;;;;4.28;1.52;;;;;;;-148.88;51.94;74934.38;4989202;28;20046;-77
2022/06/28 10:54:05;;;;;;;2.63;1.10;;;;;;;-148.88;48.60;74889.69;4972759;28;20086;-77
2022/06/28 10:56:44;;;;;;;3.45;1.23;;;;;;;-148.88;49.24;74879.53;4973982;28;20097;-76
2022/06/28 10:59:15;;;;;;;2.05;1.05;;;;;;;-148.88;45.19;74883.59;4974111;28;20034;-76
2022/06/28 11:01:40;;;;;;;4.00;1.35;;;;;;;-148.88;45.45;74867.34;4972714;28;20031;-77
2022/06/28 11:04:17;;;;;;;3.53;1.47;;;;;;;-148.88;44.42;74930.31;4974132;28;20501;-76
2022/06/28 11:06:51;;;;;;;3.15;1.50;;;;;;;-148.88;46.06;74867.34;4989298;28;20268;-77
2022/06/28 11:09:44;;;;;;;2.95;1.20;;;;;;;-148.88;45.36;74950.59;4972347;28;20038;-76
2022/06/28 11:12:13;;;;;;;4.07;1.45;;;;;;;-148.88;46.20;75001.38;4974071;28;20073;-76
2022/06/28 11:14:49;;;;;;;2.80;1.20;;;;;;;-148.88;47.63;75005.44;4988899;28;20030;-77
2022/06/28 11:17:28;;;;;;;2.03;1.15;;;;;;;-148.88;49.71;74985.13;4973848;28;20074;-76